createdAt,value
2023-03-20T00:02:27.119Z,8.97
2023-03-20T00:07:29.156Z,8.89
2023-03-20T00:12:31.453Z,8.76
2023-03-20T00:17:33.486Z,8.80
2023-03-20T00:22:35.133Z,8.83
2023-03-20T00:27:37.059Z,8.82
2023-03-20T00:32:38.726Z,8.74
2023-03-20T00:37:40.457Z,8.62
2023-03-20T00:42:44.940Z,8.54
2023-03-20T00:47:51.465Z,8.56
2023-03-20T00:52:53.802Z,8.73
2023-03-20T00:57:56.987Z,8.69
2023-03-20T01:02:59.044Z,8.83
2023-03-20T01:08:01.223Z,8.88
2023-03-20T01:13:03.767Z,8.88
2023-03-20T01:18:06.136Z,8.98
2023-03-20T01:23:08.117Z,8.90
2023-03-20T01:28:18.518Z,8.98
2023-03-20T01:33:23.247Z,9.16
2023-03-20T01:38:29.230Z,9.35
2023-03-20T01:43:34.058Z,9.47
2023-03-20T01:48:57.986Z,9.55
2023-03-20T01:54:10.777Z,9.61
2023-03-20T01:59:51.190Z,9.71
2023-03-20T02:04:58.168Z,9.77
2023-03-20T02:10:00.996Z,9.76
2023-03-20T02:15:17.181Z,9.81
2023-03-20T02:20:44.619Z,9.90
2023-03-20T02:26:08.351Z,9.98
2023-03-20T02:31:22.883Z,10.02
2023-03-20T02:36:46.617Z,10.09
2023-03-20T02:42:03.680Z,10.14
2023-03-20T02:47:13.372Z,10.20
2023-03-20T02:52:22.591Z,10.15
2023-03-20T02:57:42.852Z,10.20
2023-03-20T03:02:59.922Z,10.24
2023-03-20T03:08:04.734Z,10.19
2023-03-20T03:13:15.780Z,10.15
2023-03-20T03:18:24.843Z,10.12
2023-03-20T03:23:35.420Z,10.12
2023-03-20T03:28:46.039Z,10.12
2023-03-20T03:33:55.513Z,10.13
2023-03-20T03:39:06.302Z,10.15
2023-03-20T03:44:18.176Z,10.16
2023-03-20T03:49:28.931Z,10.17
2023-03-20T03:54:43.449Z,10.18
2023-03-20T04:00:27.275Z,10.17
2023-03-20T04:05:31.763Z,10.16
2023-03-20T04:10:33.838Z,10.02
2023-03-20T04:15:35.807Z,9.98
2023-03-20T04:20:39.217Z,9.97
2023-03-20T04:25:41.264Z,10.02
2023-03-20T04:30:44.260Z,10.11
2023-03-20T04:35:52.742Z,10.14
2023-03-20T04:40:55.293Z,10.14
2023-03-20T04:45:57.819Z,10.19
2023-03-20T04:50:59.884Z,10.15
2023-03-20T04:56:14.373Z,10.19
2023-03-20T05:01:16.628Z,10.18
2023-03-20T05:06:18.589Z,10.20
2023-03-20T05:11:20.958Z,10.09
2023-03-20T05:16:47.334Z,9.89
2023-03-20T05:22:11.130Z,9.88
2023-03-20T05:27:31.389Z,9.93
2023-03-20T05:32:56.819Z,10.00
2023-03-20T05:38:01.440Z,10.07
2023-03-20T05:43:16.916Z,10.11
2023-03-20T05:48:38.981Z,10.11
2023-03-20T05:54:03.425Z,10.10
2023-03-20T05:59:31.304Z,10.07
2023-03-20T06:05:05.929Z,10.06
2023-03-20T06:10:17.277Z,10.03
2023-03-20T06:15:19.807Z,9.96
2023-03-20T06:20:28.971Z,10.03
2023-03-20T06:25:30.926Z,10.10
2023-03-20T06:30:33.485Z,10.13
2023-03-20T06:35:36.382Z,10.15
2023-03-20T06:40:38.787Z,10.12
2023-03-20T06:45:41.000Z,10.05
2023-03-20T06:50:53.053Z,10.00
2023-03-20T06:55:57.343Z,10.00
2023-03-20T07:00:59.430Z,10.02
2023-03-20T07:06:01.795Z,10.13
2023-03-20T07:11:05.202Z,10.27
2023-03-20T07:16:08.241Z,10.39
2023-03-20T07:21:19.857Z,10.40
2023-03-20T07:26:22.125Z,10.43
2023-03-20T07:31:26.848Z,10.42
2023-03-20T07:36:38.005Z,10.45
2023-03-20T07:41:40.159Z,10.59
2023-03-20T07:46:45.970Z,10.69
2023-03-20T07:51:49.265Z,10.77
2023-03-20T07:56:51.551Z,10.91
2023-03-20T08:01:53.257Z,10.92
2023-03-20T08:06:55.043Z,11.01
2023-03-20T08:11:56.749Z,11.08
2023-03-20T08:17:12.828Z,11.00
2023-03-20T08:22:16.614Z,10.96
2023-03-20T08:27:18.366Z,11.08
2023-03-20T08:32:20.094Z,11.18
2023-03-20T08:37:22.228Z,11.41
2023-03-20T08:42:23.946Z,11.57
2023-03-20T08:47:27.020Z,11.78
2023-03-20T08:52:28.792Z,11.93
2023-03-20T08:57:30.853Z,11.84
2023-03-20T09:02:33.312Z,11.87
2023-03-20T09:07:35.592Z,11.79
2023-03-20T09:12:37.788Z,11.89
2023-03-20T09:17:39.676Z,11.82
2023-03-20T09:22:42.413Z,11.85
2023-03-20T09:27:44.181Z,11.94
2023-03-20T09:32:46.178Z,11.93
2023-03-20T09:37:48.358Z,11.94
2023-03-20T09:42:59.300Z,12.04
2023-03-20T09:48:09.618Z,12.09
2023-03-20T09:53:20.473Z,12.17
2023-03-20T09:58:30.140Z,12.13
2023-03-20T10:03:58.373Z,12.24
2023-03-20T10:09:00.278Z,12.60
2023-03-20T10:14:24.299Z,13.06
2023-03-20T10:19:36.674Z,12.94
2023-03-20T10:24:52.233Z,13.01
2023-03-20T10:30:03.566Z,13.27
2023-03-20T10:35:34.648Z,13.44
2023-03-20T10:40:41.543Z,13.69
2023-03-20T10:45:48.319Z,13.38
2023-03-20T10:50:53.845Z,13.22
2023-03-20T10:55:59.463Z,13.23
2023-03-20T11:01:02.946Z,13.22
2023-03-20T11:06:28.308Z,13.67
2023-03-20T11:11:34.314Z,13.55
2023-03-20T11:16:40.731Z,13.31
2023-03-20T11:21:51.788Z,13.17
2023-03-20T11:26:55.482Z,13.07
2023-03-20T11:32:06.730Z,13.13
2023-03-20T11:37:22.835Z,13.23
2023-03-20T11:42:28.409Z,13.31
2023-03-20T11:47:34.036Z,13.32
2023-03-20T11:52:38.968Z,13.21
2023-03-20T11:57:42.468Z,13.03
2023-03-20T12:02:44.865Z,13.09
2023-03-20T12:07:49.778Z,13.17
2023-03-20T12:12:59.146Z,13.20
2023-03-20T12:18:15.654Z,13.18
2023-03-20T12:23:29.890Z,13.16
2023-03-20T12:28:47.694Z,13.18
2023-03-20T12:34:01.338Z,13.23
2023-03-20T12:39:06.615Z,13.41
2023-03-20T12:44:21.789Z,13.53
2023-03-20T12:49:33.641Z,13.68
2023-03-20T12:55:00.221Z,13.69
2023-03-20T13:00:17.235Z,13.81
2023-03-20T13:05:56.827Z,13.76
2023-03-20T13:11:12.934Z,13.92
2023-03-20T13:16:41.627Z,13.87
2023-03-20T13:21:55.367Z,13.97
2023-03-20T13:27:21.158Z,14.11
2023-03-20T13:32:33.839Z,13.97
2023-03-20T13:37:41.101Z,13.96
2023-03-20T13:42:52.231Z,13.85
2023-03-20T13:47:55.534Z,13.92
2023-03-20T13:53:24.359Z,13.97
2023-03-20T13:59:07.487Z,14.10
2023-03-20T14:04:16.109Z,14.27
2023-03-20T14:09:30.501Z,14.35
2023-03-20T14:14:51.920Z,14.31
2023-03-20T14:19:55.178Z,14.26
2023-03-20T14:25:06.677Z,14.23
2023-03-20T14:30:29.916Z,14.19
2023-03-20T14:35:37.098Z,14.31
2023-03-20T14:40:57.129Z,14.48
2023-03-20T14:46:15.775Z,14.46
2023-03-20T14:51:37.600Z,14.79
2023-03-20T14:56:39.816Z,14.74
2023-03-20T15:01:48.054Z,14.51
2023-03-20T15:07:14.041Z,14.50
2023-03-20T15:12:22.521Z,14.39
2023-03-20T15:17:41.422Z,14.26
2023-03-20T15:23:01.312Z,14.28
2023-03-20T15:28:08.236Z,14.27
2023-03-20T15:33:41.741Z,14.45
2023-03-20T15:38:44.551Z,14.36
2023-03-20T15:43:49.486Z,14.46
2023-03-20T15:48:51.293Z,14.62
2023-03-20T15:53:53.110Z,14.69
2023-03-20T15:58:56.731Z,14.49
2023-03-20T16:03:59.809Z,14.43
2023-03-20T16:09:07.949Z,14.19
2023-03-20T16:14:14.899Z,13.97
2023-03-20T16:19:17.752Z,13.89
2023-03-20T16:24:25.954Z,13.83
2023-03-20T16:29:29.164Z,13.72
2023-03-20T16:34:34.565Z,13.72
2023-03-20T16:39:36.230Z,13.63
2023-03-20T16:44:40.291Z,13.53
2023-03-20T16:49:54.203Z,13.50
2023-03-20T16:55:00.580Z,13.47
2023-03-20T17:00:27.856Z,13.37
2023-03-20T17:05:42.498Z,13.36
2023-03-20T17:10:56.157Z,13.31
2023-03-20T17:15:59.177Z,13.25
2023-03-20T17:21:00.828Z,13.16
2023-03-20T17:26:02.513Z,13.10
2023-03-20T17:31:05.438Z,13.07
2023-03-20T17:36:17.127Z,12.95
2023-03-20T17:41:20.710Z,12.75
2023-03-20T17:46:26.592Z,12.36
2023-03-20T17:51:29.038Z,12.27
2023-03-20T17:56:32.634Z,12.22
2023-03-20T18:01:34.351Z,12.10
2023-03-20T18:06:36.967Z,12.02
2023-03-20T18:11:38.717Z,11.99
2023-03-20T18:16:40.417Z,11.92
2023-03-20T18:21:42.093Z,11.75
2023-03-20T18:26:45.824Z,11.63
2023-03-20T18:31:49.135Z,11.46
2023-03-20T18:36:51.787Z,11.16
2023-03-20T18:41:53.633Z,10.95
2023-03-20T18:46:55.325Z,10.84
2023-03-20T18:51:57.068Z,10.72
2023-03-20T18:57:00.726Z,10.59
2023-03-20T19:02:02.468Z,10.60
2023-03-20T19:07:04.133Z,10.55
2023-03-20T19:12:06.291Z,10.39
2023-03-20T19:17:10.958Z,10.35
2023-03-20T19:22:26.589Z,10.27
2023-03-20T19:27:30.721Z,10.20
2023-03-20T19:32:32.541Z,10.18
2023-03-20T19:37:34.171Z,10.07
2023-03-20T19:42:59.837Z,9.75
2023-03-20T19:47:59.008Z,9.62
2023-03-20T19:53:11.528Z,9.49
2023-03-20T19:58:14.138Z,9.38
2023-03-20T20:03:19.189Z,9.39
2023-03-20T20:08:39.457Z,9.34
2023-03-20T20:14:04.270Z,9.20
2023-03-20T20:19:05.819Z,9.10
2023-03-20T20:24:07.729Z,9.10
2023-03-20T20:29:09.750Z,9.10
2023-03-20T20:39:33.371Z,9.01
2023-03-20T20:44:35.275Z,8.88
2023-03-20T20:49:37.045Z,8.89
2023-03-20T20:54:41.912Z,8.85
2023-03-20T20:59:43.606Z,8.66
2023-03-20T21:04:45.396Z,8.59
2023-03-20T21:09:47.678Z,8.57
2023-03-20T21:14:50.734Z,8.52
2023-03-20T21:19:52.515Z,8.38
2023-03-20T21:25:11.034Z,8.44
2023-03-20T21:30:15.718Z,8.52
2023-03-20T21:35:17.464Z,8.53
2023-03-20T21:40:19.451Z,8.52
2023-03-20T21:51:28.537Z,8.73
2023-03-20T21:56:45.667Z,8.78
2023-03-20T22:07:35.952Z,8.64
2023-03-20T22:12:55.968Z,8.64
2023-03-20T22:18:12.206Z,8.66
2023-03-20T22:29:20.805Z,8.68
2023-03-20T22:34:25.866Z,8.65
2023-03-20T22:49:45.524Z,8.36
2023-03-20T22:54:47.207Z,8.31
2023-03-20T22:59:49.046Z,8.35
2023-03-20T23:04:52.429Z,8.27
2023-03-20T23:09:54.405Z,8.10
2023-03-20T23:14:56.086Z,7.92
2023-03-20T23:20:10.414Z,8.02
2023-03-20T23:25:23.572Z,8.12
2023-03-20T23:30:37.978Z,8.10
2023-03-20T23:35:46.326Z,8.00
2023-03-20T23:40:50.263Z,7.99
2023-03-20T23:45:51.955Z,8.05
2023-03-20T23:50:53.924Z,8.09
2023-03-20T23:55:57.122Z,8.21
